Terminal Aerodrome Forecast
Issued by NWS

Home | Current Version | Previous Version | Text Only | Print | Product List | Glossary On
Versions: 1 2 3 4 5 6 7 8 9 10 11 12 13 14 15 16 17 18
000
FTUS44 KLZK 291120
TAFADF
TAF
KADF 291120Z 2912/3012 VRB03KT P6SM SCT005 BKN050
      TEMPO 2912/2915 5SM BR BKN005
     FM291500 24005KT P6SM VCTS SCT050CB BKN090
     FM300300 VRB03KT P6SM SCT040 SCT100
     FM300800 VRB04KT P6SM VCTS SCT025CB OVC050 PROB30 3008/3012 4SM
      TSRA BKN025CB=

USA.gov is the U.S. government's official web portal to all federal, state and local government web resources and services.